This is the latest recevied weather packets stored in our database for station/object 9M4RBN-3. If no packets are shown the sender has not sent any weather packets the latest 10 day(s).
| Time | Temp. | Humidity | Pressure | Rain* | Wind** | Luminosity | Snow |
|---|---|---|---|---|---|---|---|
| 1777746993 | 27.22° C | 70% | 1014.2 hPa | - | - | - | - |
| 1777746093 | 27.22° C | 69% | 1014.2 hPa | - | - | - | - |
| 1777745193 | 27.22° C | 68% | 1014.5 hPa | - | - | - | - |
| 1777744293 | 27.22° C | 67% | 1014.6 hPa | - | - | - | - |
| 1777743393 | 27.22° C | 67% | 1014.8 hPa | - | - | - | - |
| 1777742493 | 26.67° C | 66% | 1015.1 hPa | - | - | - | - |
| 1777741593 | 26.67° C | 65% | 1015.2 hPa | - | - | - | - |
| 1777740693 | 26.11° C | 63% | 1015.5 hPa | - | - | - | - |
| 1777739793 | 25.56° C | 61% | 1015.5 hPa | - | - | - | - |
| 1777738893 | 25° C | 57% | 1015.7 hPa | - | - | - | - |
| 1777737993 | 24.44° C | 46% | 1015.8 hPa | - | - | - | - |
| 1777737093 | 24.44° C | 46% | 1015.7 hPa | - | - | - | - |
| 1777736271 | 24.44° C | 45% | 1015.5 hPa | - | - | - | - |
| 1777736193 | 24.44° C | 45% | 1015.5 hPa | - | - | - | - |
| 1777735293 | 24.44° C | 45% | 1015.6 hPa | - | - | - | - |
| 1777734393 | 24.44° C | 44% | 1015.5 hPa | - | - | - | - |
| 1777733493 | 25° C | 44% | 1015.6 hPa | - | - | - | - |
| 1777732594 | 25° C | 44% | 1015.5 hPa | - | - | - | - |
| 1777731694 | 25° C | 45% | 1015.4 hPa | - | - | - | - |
| 1777730794 | 25° C | 44% | 1015.2 hPa | - | - | - | - |
| 1777729894 | 25° C | 43% | 1015.1 hPa | - | - | - | - |
| 1777728994 | 25.56° C | 44% | 1014.9 hPa | - | - | - | - |
| 1777728094 | 25.56° C | 46% | 1014.6 hPa | - | - | - | - |
| 1777727194 | 25.56° C | 48% | 1014.5 hPa | - | - | - | - |
| 1777726294 | 25.56° C | 50% | 1014.3 hPa | - | - | - | - |
* Rain since midnight (hover to see other rain measurements)
** Current wind speed in m/s (hover to see current wind gust speed)